createdAt,value
2023-04-09T00:02:02.154Z,22.90
2023-04-09T00:04:28.949Z,19.75
2023-04-09T00:06:55.552Z,25.58
2023-04-09T00:09:22.659Z,23.40
2023-04-09T00:11:49.243Z,24.60
2023-04-09T00:14:16.170Z,26.88
2023-04-09T00:16:42.885Z,25.52
2023-04-09T00:19:09.570Z,24.00
2023-04-09T00:21:36.271Z,24.90
2023-04-09T00:24:03.367Z,24.40
2023-04-09T00:26:31.354Z,26.17
2023-04-09T00:28:58.285Z,24.48
2023-04-09T00:31:24.945Z,23.85
2023-04-09T00:33:51.699Z,22.83
2023-04-09T00:36:18.399Z,24.00
2023-04-09T00:38:46.171Z,22.77
2023-04-09T00:41:12.819Z,24.27
2023-04-09T00:43:39.402Z,25.73
2023-04-09T00:46:06.765Z,28.05
2023-04-09T00:48:33.503Z,26.83
2023-04-09T00:51:00.392Z,27.30
2023-04-09T00:53:27.060Z,27.63
2023-04-09T00:55:56.834Z,29.77
2023-04-09T00:58:23.540Z,32.53
2023-04-09T01:00:50.239Z,33.33
2023-04-09T01:03:17.180Z,34.63
2023-04-09T01:05:43.698Z,38.05
2023-04-09T01:08:42.492Z,38.70
2023-04-09T01:11:31.491Z,41.45
2023-04-09T01:14:08.667Z,44.95
2023-04-09T01:16:37.851Z,45.95
2023-04-09T01:19:22.085Z,44.80
2023-04-09T01:21:49.413Z,47.38
2023-04-09T01:24:16.629Z,45.42
2023-04-09T01:27:09.062Z,44.35
2023-04-09T01:29:51.577Z,47.53
2023-04-09T01:32:21.084Z,44.25
2023-04-09T01:34:48.552Z,45.38
2023-04-09T01:37:16.863Z,42.33
2023-04-09T01:39:44.122Z,45.33
2023-04-09T01:42:12.492Z,44.05
2023-04-09T01:44:40.231Z,43.17
2023-04-09T01:47:09.459Z,40.08
2023-04-09T01:49:38.375Z,42.47
2023-04-09T01:52:05.263Z,41.63
2023-04-09T01:54:31.937Z,42.45
2023-04-09T01:57:00.739Z,41.78
2023-04-09T01:59:27.563Z,41.70
2023-04-09T02:02:08.637Z,41.00
2023-04-09T02:04:46.940Z,39.53
2023-04-09T02:07:19.717Z,37.35
2023-04-09T02:09:48.724Z,39.20
2023-04-09T02:12:18.495Z,42.25
2023-04-09T02:14:51.224Z,41.53
2023-04-09T02:17:18.797Z,38.05
2023-04-09T02:19:47.770Z,39.60
2023-04-09T02:22:16.376Z,41.42
2023-04-09T02:24:45.886Z,37.53
2023-04-09T02:27:12.568Z,41.83
2023-04-09T02:29:42.494Z,37.20
2023-04-09T02:32:09.314Z,36.83
2023-04-09T02:34:35.952Z,38.45
2023-04-09T02:37:03.846Z,36.53
2023-04-09T02:39:30.549Z,35.38
2023-04-09T02:41:57.973Z,37.42
2023-04-09T02:44:26.973Z,37.55
2023-04-09T02:46:53.955Z,33.72
2023-04-09T02:49:20.537Z,34.95
2023-04-09T02:51:47.461Z,33.40
2023-04-09T02:54:14.166Z,34.47
2023-04-09T02:56:40.798Z,33.95
2023-04-09T02:59:07.519Z,34.80
2023-04-09T03:01:35.000Z,33.58
2023-04-09T03:04:02.035Z,32.67
2023-04-09T03:06:28.887Z,38.97
2023-04-09T03:08:55.570Z,33.75
2023-04-09T03:11:23.048Z,32.80
2023-04-09T03:13:49.823Z,36.17
2023-04-09T03:16:16.499Z,34.65
2023-04-09T03:18:43.113Z,39.75
2023-04-09T03:21:10.576Z,36.10
2023-04-09T03:23:45.027Z,35.08
2023-04-09T03:26:11.819Z,33.35
2023-04-09T03:28:44.675Z,34.50
2023-04-09T03:31:11.237Z,37.08
2023-04-09T03:33:40.453Z,36.67
2023-04-09T03:36:09.002Z,39.05
2023-04-09T03:38:49.982Z,36.92
2023-04-09T03:41:28.836Z,37.08
2023-04-09T03:43:57.742Z,38.25
2023-04-09T03:46:28.546Z,43.80
2023-04-09T03:48:57.570Z,38.47
2023-04-09T03:51:32.558Z,39.97
2023-04-09T03:54:01.279Z,41.95
2023-04-09T03:56:28.792Z,39.83
2023-04-09T03:58:56.044Z,38.72
2023-04-09T04:01:31.710Z,45.05
2023-04-09T04:04:01.003Z,43.88
2023-04-09T04:06:37.770Z,40.10
2023-04-09T04:09:23.078Z,42.10
2023-04-09T04:11:56.289Z,41.58
2023-04-09T04:14:26.922Z,42.25
2023-04-09T04:17:00.145Z,41.13
2023-04-09T04:19:30.660Z,41.47
2023-04-09T04:21:58.011Z,45.95
2023-04-09T04:24:24.794Z,45.28
2023-04-09T04:26:51.425Z,44.75
2023-04-09T04:29:20.121Z,42.97
2023-04-09T04:32:09.770Z,48.50
2023-04-09T04:34:37.765Z,47.35
2023-04-09T04:37:13.966Z,47.00
2023-04-09T04:39:40.819Z,50.92
2023-04-09T04:42:11.498Z,49.85
2023-04-09T04:44:38.307Z,44.80
2023-04-09T04:47:12.840Z,51.50
2023-04-09T04:49:40.027Z,50.15
2023-04-09T04:52:08.006Z,50.78
2023-04-09T04:54:36.842Z,50.95
2023-04-09T04:57:03.925Z,50.17
2023-04-09T04:59:40.885Z,52.72
2023-04-09T05:02:10.429Z,51.28
2023-04-09T05:05:09.620Z,47.78
2023-04-09T05:07:44.805Z,53.65
2023-04-09T05:10:11.622Z,53.40
2023-04-09T05:12:41.571Z,51.70
2023-04-09T05:15:10.334Z,51.75
2023-04-09T05:17:38.305Z,52.38
2023-04-09T05:20:08.025Z,50.35
2023-04-09T05:22:52.321Z,54.58
2023-04-09T05:25:34.378Z,53.17
2023-04-09T05:28:02.627Z,47.97
2023-04-09T05:30:31.144Z,47.47
2023-04-09T05:33:01.286Z,53.97
2023-04-09T05:35:28.537Z,49.15
2023-04-09T05:37:56.035Z,48.42
2023-04-09T05:40:22.949Z,52.15
2023-04-09T05:42:50.871Z,52.60
2023-04-09T05:45:37.138Z,49.35
2023-04-09T05:48:04.065Z,52.08
2023-04-09T05:50:34.345Z,52.47
2023-04-09T05:53:05.498Z,44.63
2023-04-09T05:55:38.404Z,49.15
2023-04-09T05:58:05.915Z,46.80
2023-04-09T06:00:33.001Z,46.47
2023-04-09T06:03:00.438Z,46.17
2023-04-09T06:05:28.327Z,46.08
2023-04-09T06:07:55.482Z,43.92
2023-04-09T06:10:22.115Z,43.10
2023-04-09T06:12:49.114Z,43.28
2023-04-09T06:15:16.123Z,46.00
2023-04-09T06:17:42.708Z,40.47
2023-04-09T06:20:09.784Z,42.25
2023-04-09T06:22:36.710Z,41.38
2023-04-09T06:25:03.676Z,41.22
2023-04-09T06:27:30.883Z,41.35
2023-04-09T06:29:57.446Z,40.05
2023-04-09T06:32:24.365Z,43.55
2023-04-09T06:34:51.213Z,40.30
2023-04-09T06:37:18.038Z,42.33
2023-04-09T06:39:54.199Z,40.65
2023-04-09T06:42:26.881Z,43.47
2023-04-09T06:45:08.882Z,38.47
2023-04-09T06:47:37.141Z,44.90
2023-04-09T06:50:04.225Z,43.17
2023-04-09T06:52:30.850Z,42.05
2023-04-09T06:54:57.415Z,37.33
2023-04-09T06:57:23.975Z,40.75
2023-04-09T06:59:50.585Z,43.05
2023-04-09T07:02:17.669Z,43.25
2023-04-09T07:04:44.802Z,40.95
2023-04-09T07:07:12.771Z,40.28
2023-04-09T07:09:39.637Z,42.05
2023-04-09T07:12:06.472Z,41.88
2023-04-09T07:14:33.245Z,40.70
2023-04-09T07:17:02.356Z,41.75
2023-04-09T07:19:31.048Z,42.00
2023-04-09T07:21:57.764Z,39.25
2023-04-09T07:24:24.505Z,42.38
2023-04-09T07:26:52.508Z,41.80
2023-04-09T07:29:20.717Z,42.00
2023-04-09T07:31:47.774Z,38.70
2023-04-09T07:34:14.641Z,36.80
2023-04-09T07:36:42.855Z,41.58
2023-04-09T07:39:09.672Z,42.03
2023-04-09T07:41:37.539Z,40.35
2023-04-09T07:44:06.289Z,37.55
2023-04-09T07:46:33.309Z,42.13
2023-04-09T07:49:02.436Z,42.28
2023-04-09T07:51:29.073Z,39.63
2023-04-09T07:53:55.826Z,39.50
2023-04-09T07:56:22.899Z,41.20
2023-04-09T07:58:50.741Z,42.95
2023-04-09T08:01:17.650Z,38.65
2023-04-09T08:03:46.561Z,41.78
2023-04-09T08:06:13.624Z,42.28
2023-04-09T08:08:40.447Z,39.70
2023-04-09T08:11:07.633Z,41.25
2023-04-09T08:13:34.270Z,39.33
2023-04-09T08:16:02.389Z,40.88
2023-04-09T08:18:31.266Z,42.80
2023-04-09T08:20:58.060Z,40.10
2023-04-09T08:23:24.707Z,37.15
2023-04-09T08:25:51.327Z,36.95
2023-04-09T08:28:18.347Z,35.53
2023-04-09T08:30:44.990Z,38.13
2023-04-09T08:33:11.613Z,37.25
2023-04-09T08:35:41.195Z,41.15
2023-04-09T08:38:07.815Z,39.83
2023-04-09T08:40:36.111Z,39.90
2023-04-09T08:43:06.363Z,40.63
2023-04-09T08:45:33.296Z,41.05
2023-04-09T08:48:03.665Z,37.67
2023-04-09T08:50:36.619Z,40.78
2023-04-09T08:53:04.636Z,37.85
2023-04-09T08:55:31.540Z,39.25
2023-04-09T08:57:59.311Z,38.28
2023-04-09T09:00:28.608Z,39.00
2023-04-09T09:03:13.273Z,39.17
2023-04-09T09:05:45.358Z,42.33
2023-04-09T09:08:26.750Z,40.47
2023-04-09T09:10:53.437Z,40.92
2023-04-09T09:13:30.906Z,37.75
2023-04-09T09:16:14.846Z,40.65
2023-04-09T09:18:44.034Z,40.45
2023-04-09T09:21:15.751Z,36.65
2023-04-09T09:23:43.259Z,37.28
2023-04-09T09:26:13.205Z,37.80
2023-04-09T09:28:40.585Z,39.38
2023-04-09T09:31:12.006Z,39.53
2023-04-09T09:33:39.724Z,37.42
2023-04-09T09:36:06.744Z,39.22
2023-04-09T09:38:50.820Z,40.05
2023-04-09T09:41:18.615Z,41.55
2023-04-09T09:43:45.801Z,39.05
2023-04-09T09:46:12.720Z,39.22
2023-04-09T09:48:39.600Z,40.78
2023-04-09T09:51:11.152Z,37.25
2023-04-09T09:53:39.261Z,40.78
2023-04-09T09:56:07.353Z,38.95
2023-04-09T09:58:41.290Z,36.92
2023-04-09T10:01:11.293Z,39.65
2023-04-09T10:03:39.781Z,42.58
2023-04-09T10:06:07.827Z,38.67
2023-04-09T10:08:36.003Z,39.13
2023-04-09T10:11:04.090Z,36.40
2023-04-09T10:13:52.834Z,38.15
2023-04-09T10:16:23.124Z,39.13
2023-04-09T10:18:50.257Z,41.65
2023-04-09T10:21:47.791Z,40.15
2023-04-09T10:24:16.055Z,30.77
2023-04-09T10:26:46.995Z,32.20
2023-04-09T10:29:15.679Z,32.13
2023-04-09T10:31:52.290Z,34.28
2023-04-09T10:34:26.899Z,27.48
2023-04-09T10:36:57.451Z,29.90
2023-04-09T10:39:29.906Z,29.40
2023-04-09T10:41:58.225Z,26.98
2023-04-09T10:44:31.406Z,30.13
2023-04-09T10:46:58.840Z,31.15
2023-04-09T10:49:27.120Z,29.45
2023-04-09T10:52:13.835Z,31.63
2023-04-09T10:54:46.320Z,30.17
2023-04-09T10:57:24.309Z,26.13
2023-04-09T10:59:55.377Z,25.23
2023-04-09T11:02:38.537Z,27.33
2023-04-09T11:05:17.693Z,27.27
2023-04-09T11:07:48.177Z,22.92
2023-04-09T11:10:15.026Z,21.90
2023-04-09T11:12:42.926Z,18.98
2023-04-09T11:15:19.840Z,21.63
2023-04-09T11:17:47.969Z,17.77
2023-04-09T11:20:16.528Z,19.73
2023-04-09T11:22:43.240Z,20.90
2023-04-09T11:25:09.938Z,19.08
2023-04-09T11:27:38.990Z,19.77
2023-04-09T11:30:06.414Z,21.35
2023-04-09T11:32:34.314Z,21.98
2023-04-09T11:35:01.080Z,19.98
2023-04-09T11:37:27.922Z,19.65
2023-04-09T11:39:57.348Z,22.45
2023-04-09T11:42:27.592Z,19.50
2023-04-09T11:44:54.376Z,17.45
2023-04-09T11:47:21.961Z,20.25
2023-04-09T11:49:51.571Z,17.98
2023-04-09T11:52:19.668Z,18.15
2023-04-09T11:54:49.869Z,18.67
2023-04-09T11:57:17.422Z,20.40
2023-04-09T11:59:44.357Z,17.33
2023-04-09T12:02:11.070Z,20.05
2023-04-09T12:04:37.970Z,18.63
2023-04-09T12:07:15.153Z,19.65
2023-04-09T12:09:49.215Z,20.48
2023-04-09T12:12:23.901Z,20.27
2023-04-09T12:14:53.761Z,17.50
2023-04-09T12:17:21.245Z,17.85
2023-04-09T12:19:49.091Z,17.10
2023-04-09T12:22:16.052Z,20.63
2023-04-09T12:24:42.706Z,19.05
2023-04-09T12:27:10.853Z,17.55
2023-04-09T12:29:37.493Z,17.33
2023-04-09T12:32:05.060Z,19.10
2023-04-09T12:34:32.200Z,17.40
2023-04-09T12:36:59.482Z,16.52
2023-04-09T12:39:26.481Z,17.10
2023-04-09T12:41:54.369Z,16.25
2023-04-09T12:44:21.065Z,16.23
2023-04-09T12:46:47.857Z,16.60
2023-04-09T12:49:14.539Z,16.10
2023-04-09T12:51:41.602Z,15.05
2023-04-09T12:54:08.429Z,17.40
2023-04-09T12:56:35.284Z,17.02
2023-04-09T12:59:02.006Z,14.80
2023-04-09T13:01:28.955Z,15.55
2023-04-09T13:03:55.799Z,15.27
2023-04-09T13:06:22.967Z,17.98
2023-04-09T13:08:49.809Z,13.70
2023-04-09T13:11:16.618Z,14.93
2023-04-09T13:13:43.269Z,14.32
2023-04-09T13:16:09.812Z,14.48
2023-04-09T13:18:37.479Z,13.48
2023-04-09T13:21:04.166Z,13.68
2023-04-09T13:23:30.759Z,14.55
2023-04-09T13:25:57.401Z,14.30
2023-04-09T13:28:24.350Z,13.95
2023-04-09T13:30:51.369Z,15.30
2023-04-09T13:33:18.028Z,13.60
2023-04-09T13:35:45.874Z,13.68
2023-04-09T13:38:14.180Z,13.90
2023-04-09T13:40:41.667Z,12.68
2023-04-09T13:43:08.595Z,14.27
2023-04-09T13:45:35.291Z,11.88
2023-04-09T13:48:02.003Z,10.90
2023-04-09T13:50:29.383Z,12.23
2023-04-09T13:52:56.353Z,13.55
2023-04-09T13:55:22.923Z,13.15
2023-04-09T13:57:50.655Z,11.88
2023-04-09T14:00:17.468Z,13.05
2023-04-09T14:02:44.302Z,12.70
2023-04-09T14:05:11.127Z,15.15
2023-04-09T14:07:37.856Z,15.20
2023-04-09T14:10:04.969Z,16.30
2023-04-09T14:12:32.327Z,13.25
2023-04-09T14:14:59.169Z,16.20
2023-04-09T14:17:26.420Z,13.48
2023-04-09T14:19:52.999Z,13.55
2023-04-09T14:22:19.815Z,14.95
2023-04-09T14:24:47.396Z,13.40
2023-04-09T14:27:14.109Z,12.68
2023-04-09T14:29:40.665Z,12.52
2023-04-09T14:32:07.815Z,14.45
2023-04-09T14:34:34.866Z,9.82
2023-04-09T14:37:01.423Z,12.38
2023-04-09T14:39:28.287Z,8.80
2023-04-09T14:41:57.125Z,11.40
2023-04-09T14:44:26.712Z,10.18
2023-04-09T14:46:55.237Z,10.27
2023-04-09T14:49:23.314Z,10.23
2023-04-09T14:51:50.070Z,8.88
2023-04-09T14:54:16.758Z,11.05
2023-04-09T14:56:43.377Z,11.05
2023-04-09T14:59:10.257Z,14.50
2023-04-09T15:01:37.093Z,12.27
2023-04-09T15:04:04.059Z,11.95
2023-04-09T15:06:32.285Z,12.68
2023-04-09T15:08:58.993Z,11.43
2023-04-09T15:11:30.461Z,12.93
2023-04-09T15:13:58.060Z,12.57
2023-04-09T15:16:28.477Z,10.30
2023-04-09T15:19:05.258Z,11.60
2023-04-09T15:21:33.428Z,14.98
2023-04-09T15:24:00.501Z,11.77
2023-04-09T15:26:27.494Z,13.70
2023-04-09T15:29:07.315Z,12.75
2023-04-09T15:31:34.629Z,12.00
2023-04-09T15:34:01.590Z,14.30
2023-04-09T15:36:32.507Z,13.30
2023-04-09T15:38:59.181Z,11.80
2023-04-09T15:41:26.874Z,11.98
2023-04-09T15:43:53.573Z,12.20
2023-04-09T15:46:21.228Z,14.80
2023-04-09T15:48:48.384Z,13.95
2023-04-09T15:51:16.659Z,13.55
2023-04-09T15:53:43.408Z,14.07
2023-04-09T15:56:15.182Z,11.85
2023-04-09T15:58:43.324Z,15.38
2023-04-09T16:01:10.593Z,15.98
2023-04-09T16:03:41.000Z,13.18
2023-04-09T16:06:14.488Z,12.38
2023-04-09T16:11:08.229Z,15.38
2023-04-09T16:13:35.391Z,12.77
2023-04-09T16:16:01.913Z,12.65
2023-04-09T16:18:28.734Z,11.95
2023-04-09T16:20:57.436Z,15.40
2023-04-09T16:23:26.955Z,14.27
2023-04-09T16:25:53.623Z,11.18
2023-04-09T16:28:22.556Z,12.82
2023-04-09T16:30:55.522Z,12.70
2023-04-09T16:33:22.117Z,13.38
2023-04-09T16:35:48.936Z,12.38
2023-04-09T16:38:15.654Z,13.88
2023-04-09T16:40:43.594Z,12.75
2023-04-09T16:43:10.332Z,13.45
2023-04-09T16:45:37.079Z,12.90
2023-04-09T16:48:06.303Z,13.38
2023-04-09T16:50:33.098Z,12.48
2023-04-09T16:53:01.100Z,13.07
2023-04-09T16:55:29.159Z,14.05
2023-04-09T16:57:56.767Z,11.32
2023-04-09T17:00:23.637Z,13.43
2023-04-09T17:02:51.428Z,12.05
2023-04-09T17:05:19.685Z,12.30
2023-04-09T17:07:46.277Z,11.95
2023-04-09T17:10:13.078Z,12.15
2023-04-09T17:12:39.922Z,13.32
2023-04-09T17:15:07.658Z,11.23
2023-04-09T17:17:34.753Z,11.43
2023-04-09T17:20:01.645Z,11.88
2023-04-09T17:22:28.343Z,12.82
2023-04-09T17:24:54.947Z,12.05
2023-04-09T17:27:21.820Z,13.60
2023-04-09T17:29:48.422Z,12.15
2023-04-09T17:32:15.445Z,12.98
2023-04-09T17:34:43.547Z,12.23
2023-04-09T17:37:10.062Z,11.70
2023-04-09T17:39:37.511Z,11.82
2023-04-09T17:42:05.414Z,10.35
2023-04-09T17:44:35.196Z,11.98
2023-04-09T17:47:05.022Z,12.82
2023-04-09T17:49:32.406Z,11.27
2023-04-09T17:51:59.866Z,10.40
2023-04-09T17:54:26.423Z,11.63
2023-04-09T17:56:53.534Z,11.23
2023-04-09T17:59:20.666Z,12.50
2023-04-09T18:01:47.486Z,15.27
2023-04-09T18:04:15.156Z,12.35
2023-04-09T18:06:42.146Z,15.75
2023-04-09T18:09:08.795Z,10.20
2023-04-09T18:11:35.561Z,11.63
2023-04-09T18:14:07.739Z,10.82
2023-04-09T18:16:38.093Z,9.75
2023-04-09T18:19:08.366Z,10.88
2023-04-09T18:21:37.971Z,11.05
2023-04-09T18:24:05.498Z,11.38
2023-04-09T18:26:33.962Z,10.63
2023-04-09T18:29:01.818Z,13.15
2023-04-09T18:31:29.229Z,10.98
2023-04-09T18:33:56.188Z,13.05
2023-04-09T18:36:23.089Z,10.70
2023-04-09T18:38:49.916Z,11.50
2023-04-09T18:41:23.817Z,14.50
2023-04-09T18:43:51.878Z,15.45
2023-04-09T18:46:18.875Z,11.10
2023-04-09T18:48:47.055Z,12.75
2023-04-09T18:51:14.865Z,15.35
2023-04-09T18:53:42.170Z,12.73
2023-04-09T18:56:09.005Z,10.20
2023-04-09T18:58:36.532Z,10.20
2023-04-09T19:01:12.800Z,9.52
2023-04-09T19:03:40.589Z,11.30
2023-04-09T19:06:14.977Z,11.00
2023-04-09T19:08:41.904Z,13.23
2023-04-09T19:11:08.700Z,14.55
2023-04-09T19:13:36.871Z,13.10
2023-04-09T19:16:04.241Z,13.00
2023-04-09T19:18:31.976Z,11.25
2023-04-09T19:20:58.565Z,10.32
2023-04-09T19:23:27.742Z,11.93
2023-04-09T19:25:55.888Z,12.05
2023-04-09T19:28:23.298Z,15.85
2023-04-09T19:30:52.807Z,13.00
2023-04-09T19:33:27.084Z,12.27
2023-04-09T19:35:55.744Z,12.65
2023-04-09T19:38:22.382Z,12.55
2023-04-09T19:40:49.647Z,13.30
2023-04-09T19:43:16.463Z,10.75
2023-04-09T19:45:43.536Z,11.70
2023-04-09T19:48:10.580Z,14.10
2023-04-09T19:50:38.852Z,16.48
2023-04-09T19:53:06.250Z,12.77
2023-04-09T19:55:34.046Z,13.45
2023-04-09T19:58:00.839Z,11.98
2023-04-09T20:00:28.670Z,11.82
2023-04-09T20:02:55.686Z,13.70
2023-04-09T20:05:23.378Z,14.43
2023-04-09T20:07:52.610Z,13.57
2023-04-09T20:10:19.681Z,11.85
2023-04-09T20:12:50.818Z,13.60
2023-04-09T20:15:20.048Z,13.57
2023-04-09T20:17:50.833Z,15.70
2023-04-09T20:20:20.866Z,16.42
2023-04-09T20:22:55.663Z,17.60
2023-04-09T20:25:24.155Z,18.30
2023-04-09T20:27:54.623Z,15.63
2023-04-09T20:30:21.522Z,13.60
2023-04-09T20:32:49.496Z,15.82
2023-04-09T20:35:16.420Z,13.73
2023-04-09T20:37:43.119Z,17.35
2023-04-09T20:40:11.913Z,14.93
2023-04-09T20:42:40.474Z,13.25
2023-04-09T20:45:08.178Z,15.20
2023-04-09T20:47:34.959Z,14.60
2023-04-09T20:50:02.118Z,16.58
2023-04-09T20:52:29.014Z,17.77
2023-04-09T20:54:57.607Z,18.80
2023-04-09T20:57:24.343Z,19.35
2023-04-09T20:59:50.965Z,18.77
2023-04-09T21:02:17.840Z,18.75
2023-04-09T21:04:44.664Z,15.95
2023-04-09T21:07:11.513Z,18.63
2023-04-09T21:09:38.359Z,14.77
2023-04-09T21:12:04.942Z,15.70
2023-04-09T21:14:31.865Z,18.50
2023-04-09T21:16:58.814Z,20.10
2023-04-09T21:19:25.775Z,16.65
2023-04-09T21:21:52.464Z,16.65
2023-04-09T21:24:19.080Z,14.07
2023-04-09T21:26:51.508Z,16.33
2023-04-09T21:29:21.152Z,16.20
2023-04-09T21:31:49.336Z,15.65
2023-04-09T21:34:16.341Z,18.00
2023-04-09T21:36:44.987Z,15.27
2023-04-09T21:39:12.288Z,14.30
2023-04-09T21:41:39.151Z,13.27
2023-04-09T21:44:08.841Z,13.68
2023-04-09T21:46:37.270Z,14.23
2023-04-09T21:49:04.482Z,14.13
2023-04-09T21:51:33.015Z,13.93
2023-04-09T21:54:07.666Z,14.48
2023-04-09T21:56:35.620Z,14.57
2023-04-09T21:59:02.635Z,13.45
2023-04-09T22:01:34.458Z,15.48
2023-04-09T22:04:03.025Z,16.02
2023-04-09T22:06:29.835Z,17.73
2023-04-09T22:08:57.768Z,15.10
2023-04-09T22:11:29.655Z,15.43
2023-04-09T22:13:57.535Z,17.50
2023-04-09T22:16:24.961Z,13.82
2023-04-09T22:18:52.934Z,14.80
2023-04-09T22:21:19.767Z,12.70
2023-04-09T22:23:46.276Z,12.75
2023-04-09T22:26:13.051Z,14.25
2023-04-09T22:28:39.983Z,16.48
2023-04-09T22:31:09.779Z,14.25
2023-04-09T22:33:36.550Z,12.57
2023-04-09T22:36:03.253Z,15.43
2023-04-09T22:38:30.624Z,15.52
2023-04-09T22:40:57.166Z,13.10
2023-04-09T22:43:24.000Z,12.43
2023-04-09T22:45:52.330Z,12.60
2023-04-09T22:48:19.948Z,12.15
2023-04-09T22:50:47.623Z,14.73
2023-04-09T22:53:18.728Z,13.80
2023-04-09T22:55:52.691Z,15.85
2023-04-09T23:00:47.205Z,12.68
2023-04-09T23:03:14.146Z,12.05
2023-04-09T23:05:41.258Z,12.80
2023-04-09T23:08:08.017Z,13.05
2023-04-09T23:10:34.972Z,12.57
2023-04-09T23:13:02.114Z,15.50
2023-04-09T23:15:28.823Z,13.02
2023-04-09T23:17:56.162Z,15.43
2023-04-09T23:20:23.183Z,14.93
2023-04-09T23:22:50.286Z,11.27
2023-04-09T23:25:17.614Z,12.77
2023-04-09T23:27:44.772Z,12.90
2023-04-09T23:30:16.558Z,11.38
2023-04-09T23:32:44.778Z,14.93
2023-04-09T23:35:11.959Z,16.90
2023-04-09T23:37:39.333Z,15.63
2023-04-09T23:40:07.499Z,13.05
2023-04-09T23:42:34.147Z,12.45
2023-04-09T23:45:04.134Z,14.85
2023-04-09T23:47:36.515Z,12.02
2023-04-09T23:50:06.484Z,14.02
2023-04-09T23:52:37.791Z,15.15
2023-04-09T23:55:08.702Z,12.50
2023-04-09T23:57:35.524Z,15.82
